Time;durP1;ratioP1;P1;durP2;ratioP2;P2;SDS_P1;SDS_P2;PMS_P1;PMS_P2;Temp;Humidity;BMP_temperature;BMP_pressure;BME280_temperature;BME280_humidity;BME280_pressure;Samples;Min_cycle;Max_cycle;Signal;HPM_P1;HPM_P2
2022/06/01 00:01:18;;;;;;;22.88;19.50;;;;;;;;;;5012752;28;93253;-75
2022/06/01 00:03:45;;;;;;;22.73;19.80;;;;;;;;;;5012025;28;96111;-75
2022/06/01 00:06:11;;;;;;;23.83;20.55;;;;;;;;;;4993152;28;92468;-75
2022/06/01 00:08:38;;;;;;;25.17;21.42;;;;;;;;;;4997801;28;93270;-75
2022/06/01 00:11:05;;;;;;;24.92;20.40;;;;;;;;;;4995494;28;93829;-75
2022/06/01 00:13:31;;;;;;;26.77;21.55;;;;;;;;;;5012889;28;93662;-75
2022/06/01 00:15:57;;;;;;;24.83;21.60;;;;;;;;;;5010230;28;93540;-75
2022/06/01 00:18:24;;;;;;;22.73;19.63;;;;;;;;;;4994660;28;92459;-75
2022/06/01 00:20:51;;;;;;;22.98;19.63;;;;;;;;;;4995161;28;93369;-75
2022/06/01 00:23:18;;;;;;;28.02;20.83;;;;;;;;;;5012836;28;93942;-75
2022/06/01 00:25:44;;;;;;;26.48;18.80;;;;;;;;;;5008715;28;92520;-75
2022/06/01 00:28:10;;;;;;;25.25;19.05;;;;;;;;;;4994954;28;94878;-75
2022/06/01 00:30:37;;;;;;;21.10;17.33;;;;;;;;;;4995641;28;92662;-75
2022/06/01 00:33:04;;;;;;;19.48;17.00;;;;;;;;;;4994553;28;93414;-75
2022/06/01 00:35:31;;;;;;;23.30;16.95;;;;;;;;;;4994607;28;94497;-76
2022/06/01 00:37:57;;;;;;;24.58;15.52;;;;;;;;;;4994963;28;92372;-75
2022/06/01 00:40:26;;;;;;;16.35;13.55;;;;;;;;;;5006823;28;93330;-75
2022/06/01 00:42:54;;;;;;;14.90;11.98;;;;;;;;;;5012195;28;94935;-75
2022/06/01 00:45:22;;;;;;;16.13;12.48;;;;;;;;;;4992145;28;91681;-77
2022/06/01 00:47:48;;;;;;;11.40;9.75;;;;;;;;;;5012735;28;92941;-75
2022/06/01 00:50:21;;;;;;;13.95;10.52;;;;;;;;;;5016490;28;93493;-75
2022/06/01 00:53:09;;;;;;;12.38;10.00;;;;;;;;;;4992597;28;94873;-75
2022/06/01 00:55:37;;;;;;;12.73;9.25;;;;;;;;;;4996324;28;96472;-75
2022/06/01 00:58:04;;;;;;;11.45;9.35;;;;;;;;;;5012018;28;93318;-75
2022/06/01 01:00:33;;;;;;;12.43;9.13;;;;;;;;;;5009837;28;94204;-75
2022/06/01 01:03:01;;;;;;;11.55;9.20;;;;;;;;;;4993635;28;94888;-75
2022/06/01 01:05:27;;;;;;;14.85;10.25;;;;;;;;;;5012588;28;92669;-76
2022/06/01 01:07:55;;;;;;;10.30;9.00;;;;;;;;;;4993759;28;94277;-75
2022/06/01 01:10:21;;;;;;;10.65;9.45;;;;;;;;;;4995839;28;92431;-76
2022/06/01 01:13:03;;;;;;;11.15;8.57;;;;;;;;;;5015988;28;92552;-76
2022/06/01 01:15:34;;;;;;;13.40;9.55;;;;;;;;;;5010240;28;94551;-76
2022/06/01 01:18:02;;;;;;;12.77;9.88;;;;;;;;;;5010781;28;94851;-76
2022/06/01 01:20:28;;;;;;;14.20;9.30;;;;;;;;;;4995238;28;96993;-76
2022/06/01 01:22:57;;;;;;;12.80;9.70;;;;;;;;;;5011008;28;93502;-76
2022/06/01 01:25:24;;;;;;;12.82;9.25;;;;;;;;;;5015931;28;92465;-76
2022/06/01 01:27:54;;;;;;;10.95;9.50;;;;;;;;;;4995756;28;95741;-76
2022/06/01 01:30:25;;;;;;;10.60;8.95;;;;;;;;;;5013321;28;94112;-76
2022/06/01 01:32:51;;;;;;;11.32;9.73;;;;;;;;;;4996451;28;92477;-76
2022/06/01 01:35:19;;;;;;;14.65;9.60;;;;;;;;;;4997518;28;93213;-76
2022/06/01 01:37:47;;;;;;;11.40;9.23;;;;;;;;;;4984561;28;92573;-76
2022/06/01 01:40:13;;;;;;;11.90;9.52;;;;;;;;;;4995298;28;96270;-76
2022/06/01 01:42:40;;;;;;;19.27;10.05;;;;;;;;;;5010247;28;96088;-76
2022/06/01 01:45:24;;;;;;;10.10;9.05;;;;;;;;;;4989295;28;92562;-75
2022/06/01 01:47:51;;;;;;;10.20;9.15;;;;;;;;;;4998174;28;93173;-76
2022/06/01 01:50:18;;;;;;;12.90;9.43;;;;;;;;;;4997160;28;93524;-76
2022/06/01 01:52:45;;;;;;;19.42;9.80;;;;;;;;;;4999308;28;92432;-77
2022/06/01 01:55:21;;;;;;;16.02;10.63;;;;;;;;;;4996321;28;93566;-76
2022/06/01 01:58:23;;;;;;;12.93;10.75;;;;;;;;;;4999072;28;95006;-76
2022/06/01 02:00:52;;;;;;;13.80;10.90;;;;;;;;;;4910611;28;94400;-76
2022/06/01 02:03:34;;;;;;;15.85;11.68;;;;;;;;;;4895636;28;93662;-76
2022/06/01 02:06:09;;;;;;;15.93;12.32;;;;;;;;;;4892182;28;92540;-75
2022/06/01 02:08:39;;;;;;;16.10;12.57;;;;;;;;;;4894382;28;94868;-75
2022/06/01 02:13:54;;;;;;;16.85;12.63;;;;;;;;;;4898884;28;92483;-75
2022/06/01 02:16:24;;;;;;;14.60;12.68;;;;;;;;;;4903901;28;92617;-75
2022/06/01 02:18:53;;;;;;;16.15;12.93;;;;;;;;;;4906977;28;93451;-75
2022/06/01 02:21:24;;;;;;;16.60;12.88;;;;;;;;;;4882125;28;92460;-75
2022/06/01 02:23:51;;;;;;;19.05;11.60;;;;;;;;;;4895464;28;97893;-75
2022/06/01 02:26:21;;;;;;;15.70;12.15;;;;;;;;;;4894886;28;92592;-75
2022/06/01 02:28:49;;;;;;;13.55;12.10;;;;;;;;;;4905507;28;92532;-75
2022/06/01 02:31:16;;;;;;;13.50;11.68;;;;;;;;;;4896445;28;93486;-75
2022/06/01 02:33:44;;;;;;;16.65;11.60;;;;;;;;;;4895795;28;95058;-75
2022/06/01 02:36:14;;;;;;;13.05;9.93;;;;;;;;;;4997046;28;95764;-75
2022/06/01 02:38:46;;;;;;;14.80;10.07;;;;;;;;;;5008299;28;93213;-75
2022/06/01 02:43:57;;;;;;;11.25;8.93;;;;;;;;;;5015459;28;94078;-75
2022/06/01 02:46:24;;;;;;;10.15;8.15;;;;;;;;;;4997931;28;92498;-75
2022/06/01 02:48:51;;;;;;;8.90;7.75;;;;;;;;;;5013277;28;94834;-74
2022/06/01 02:51:18;;;;;;;9.43;7.20;;;;;;;;;;5015753;28;93130;-75
2022/06/01 02:53:45;;;;;;;8.40;7.13;;;;;;;;;;4999378;28;92398;-75
2022/06/01 02:56:12;;;;;;;6.57;5.72;;;;;;;;;;5013448;28;93197;-75
2022/06/01 02:58:38;;;;;;;7.38;6.57;;;;;;;;;;4993274;28;96291;-75
2022/06/01 03:01:06;;;;;;;6.97;6.35;;;;;;;;;;4997231;28;92644;-75
2022/06/01 03:03:33;;;;;;;9.00;6.25;;;;;;;;;;4996427;28;93561;-75
2022/06/01 03:05:59;;;;;;;8.07;6.65;;;;;;;;;;5002165;28;92447;-76
2022/06/01 03:08:26;;;;;;;6.90;6.15;;;;;;;;;;4997458;28;94795;-75
2022/06/01 03:10:52;;;;;;;7.50;6.05;;;;;;;;;;5014611;28;93380;-75
2022/06/01 03:13:20;;;;;;;9.95;6.25;;;;;;;;;;5013065;28;92487;-75
2022/06/01 03:15:48;;;;;;;8.93;6.40;;;;;;;;;;4995268;28;91938;-75
2022/06/01 03:18:14;;;;;;;8.25;5.82;;;;;;;;;;5013594;28;93405;-75
2022/06/01 03:20:41;;;;;;;7.22;6.47;;;;;;;;;;4995392;28;92457;-75
2022/06/01 03:23:08;;;;;;;8.02;6.43;;;;;;;;;;5010396;28;95143;-75
2022/06/01 03:25:37;;;;;;;9.95;6.88;;;;;;;;;;5018206;28;93256;-75
2022/06/01 03:28:03;;;;;;;8.27;6.13;;;;;;;;;;5014508;28;92949;-75
2022/06/01 03:30:30;;;;;;;7.70;6.10;;;;;;;;;;5013271;28;94057;-75
2022/06/01 03:32:56;;;;;;;11.25;6.40;;;;;;;;;;4996703;28;92529;-75
2022/06/01 03:35:23;;;;;;;7.43;6.03;;;;;;;;;;5015500;28;93657;-75
2022/06/01 03:37:50;;;;;;;8.93;6.68;;;;;;;;;;4994001;28;94307;-75
2022/06/01 03:40:17;;;;;;;8.32;6.18;;;;;;;;;;4996990;28;91803;-75
2022/06/01 03:42:44;;;;;;;8.23;6.07;;;;;;;;;;4996393;28;92455;-75
2022/06/01 03:47:56;;;;;;;11.48;5.93;;;;;;;;;;5014090;28;95367;-76
2022/06/01 03:50:25;;;;;;;6.32;5.63;;;;;;;;;;5015588;28;94253;-75
2022/06/01 03:52:52;;;;;;;6.93;5.77;;;;;;;;;;4993417;28;92493;-76
2022/06/01 03:55:18;;;;;;;7.80;5.60;;;;;;;;;;5013740;28;94113;-76
2022/06/01 03:57:45;;;;;;;6.10;5.43;;;;;;;;;;5012745;28;93489;-75
2022/06/01 04:00:13;;;;;;;7.40;5.55;;;;;;;;;;4994852;28;93557;-76
2022/06/01 04:02:40;;;;;;;9.00;6.03;;;;;;;;;;4995730;28;94883;-75
2022/06/01 04:05:11;;;;;;;9.73;6.45;;;;;;;;;;4996839;28;92612;-75
2022/06/01 04:07:37;;;;;;;8.27;6.88;;;;;;;;;;4992377;28;92967;-75
2022/06/01 04:10:04;;;;;;;7.20;5.93;;;;;;;;;;4997545;28;93557;-75
2022/06/01 04:12:30;;;;;;;14.13;7.90;;;;;;;;;;4994787;28;94936;-75
2022/06/01 04:14:56;;;;;;;9.55;8.30;;;;;;;;;;4992443;28;95362;-76
2022/06/01 04:17:23;;;;;;;10.32;7.90;;;;;;;;;;4992834;28;92482;-76
2022/06/01 04:19:49;;;;;;;12.38;8.23;;;;;;;;;;4993079;28;92886;-76
2022/06/01 04:22:15;;;;;;;15.80;9.68;;;;;;;;;;4989110;28;94316;-76
2022/06/01 04:24:42;;;;;;;15.55;10.25;;;;;;;;;;4995059;28;93455;-75
2022/06/01 04:27:08;;;;;;;14.70;11.40;;;;;;;;;;4991893;28;92504;-76
2022/06/01 04:29:35;;;;;;;15.70;11.60;;;;;;;;;;4997090;28;93207;-75
2022/06/01 04:32:07;;;;;;;16.13;11.13;;;;;;;;;;4991248;28;94541;-76
2022/06/01 04:34:34;;;;;;;14.93;10.88;;;;;;;;;;4984436;28;93090;-76
2022/06/01 04:37:00;;;;;;;15.10;10.40;;;;;;;;;;4991626;28;98957;-75
2022/06/01 04:39:27;;;;;;;15.73;10.90;;;;;;;;;;4993834;28;92591;-75
2022/06/01 04:41:53;;;;;;;13.95;10.43;;;;;;;;;;4991803;28;95560;-76
2022/06/01 04:44:19;;;;;;;16.77;10.18;;;;;;;;;;4987353;28;94080;-76
2022/06/01 04:46:46;;;;;;;12.25;9.95;;;;;;;;;;4987095;28;92475;-76
2022/06/01 04:49:12;;;;;;;15.93;10.40;;;;;;;;;;4992842;28;94222;-76
2022/06/01 04:51:38;;;;;;;13.23;10.52;;;;;;;;;;4995037;28;94075;-76
2022/06/01 04:54:07;;;;;;;17.20;10.43;;;;;;;;;;4992886;28;93289;-76
2022/06/01 04:56:33;;;;;;;12.35;10.55;;;;;;;;;;4991908;28;93714;-77
2022/06/01 04:59:00;;;;;;;16.38;10.80;;;;;;;;;;4991379;28;92590;-76
2022/06/01 05:01:26;;;;;;;11.50;9.48;;;;;;;;;;4981453;28;94909;-76
2022/06/01 05:03:53;;;;;;;14.48;10.32;;;;;;;;;;4986575;28;94009;-76
2022/06/01 05:06:19;;;;;;;11.70;10.20;;;;;;;;;;4992554;28;92454;-75
2022/06/01 05:08:46;;;;;;;14.00;9.93;;;;;;;;;;4990989;28;95102;-76
2022/06/01 05:11:12;;;;;;;12.38;9.43;;;;;;;;;;4991119;28;93752;-76
2022/06/01 05:13:45;;;;;;;13.25;9.85;;;;;;;;;;4996055;28;92401;-76
2022/06/01 05:16:11;;;;;;;13.32;10.30;;;;;;;;;;5003768;28;96398;-76
2022/06/01 05:18:39;;;;;;;12.50;8.52;;;;;;;;;;5008769;28;92107;-76
2022/06/01 05:21:05;;;;;;;13.82;9.52;;;;;;;;;;4997689;28;93285;-76
2022/06/01 05:23:31;;;;;;;11.45;8.57;;;;;;;;;;5023727;28;93754;-75
2022/06/01 05:25:58;;;;;;;11.25;8.40;;;;;;;;;;5027114;28;94817;-75
2022/06/01 05:28:26;;;;;;;9.57;7.10;;;;;;;;;;5017527;28;97332;-75
2022/06/01 05:30:58;;;;;;;8.10;6.88;;;;;;;;;;5016700;28;93420;-75
2022/06/01 05:33:25;;;;;;;7.22;6.53;;;;;;;;;;4999487;28;92425;-75
2022/06/01 05:35:51;;;;;;;8.45;6.25;;;;;;;;;;5017586;28;93542;-75
2022/06/01 05:38:18;;;;;;;7.18;5.78;;;;;;;;;;4999531;28;92445;-75
2022/06/01 05:40:44;;;;;;;8.40;6.07;;;;;;;;;;5015266;28;93225;-75
2022/06/01 05:43:12;;;;;;;8.65;5.93;;;;;;;;;;5017430;28;92490;-75
2022/06/01 05:45:39;;;;;;;7.15;5.57;;;;;;;;;;4995163;28;92820;-75
2022/06/01 05:48:06;;;;;;;6.55;5.85;;;;;;;;;;5016411;28;93010;-75
2022/06/01 05:50:33;;;;;;;6.00;5.47;;;;;;;;;;4997255;28;96004;-75
2022/06/01 05:52:59;;;;;;;8.88;6.07;;;;;;;;;;5017705;28;92410;-75
2022/06/01 05:55:26;;;;;;;7.25;5.65;;;;;;;;;;4997218;28;93321;-76
2022/06/01 05:57:52;;;;;;;8.48;5.60;;;;;;;;;;5013382;28;94213;-75
2022/06/01 06:00:18;;;;;;;8.05;5.40;;;;;;;;;;4998976;28;94144;-75
2022/06/01 06:02:45;;;;;;;9.13;5.97;;;;;;;;;;5016436;28;96210;-75
2022/06/01 06:07:57;;;;;;;7.72;5.47;;;;;;;;;;4998103;28;93237;-76
2022/06/01 06:10:24;;;;;;;8.63;5.70;;;;;;;;;;4996731;28;93234;-76
2022/06/01 06:12:51;;;;;;;12.23;5.70;;;;;;;;;;4996494;28;92509;-76
2022/06/01 06:15:17;;;;;;;5.82;5.05;;;;;;;;;;4991073;28;94932;-75
2022/06/01 06:17:49;;;;;;;6.32;5.50;;;;;;;;;;5007963;28;93518;-77
2022/06/01 06:20:16;;;;;;;6.90;5.40;;;;;;;;;;4996310;28;93828;-75
2022/06/01 06:22:42;;;;;;;8.52;5.75;;;;;;;;;;5014406;28;93431;-77
2022/06/01 06:25:09;;;;;;;7.68;5.43;;;;;;;;;;5009191;28;93130;-75
2022/06/01 06:27:35;;;;;;;9.68;5.38;;;;;;;;;;5016617;28;92849;-75
2022/06/01 06:30:02;;;;;;;7.03;5.47;;;;;;;;;;4997313;28;93444;-75
2022/06/01 06:32:28;;;;;;;6.65;5.15;;;;;;;;;;5012109;28;93496;-76
2022/06/01 06:34:55;;;;;;;7.35;5.38;;;;;;;;;;5006230;28;92928;-75
2022/06/01 06:37:21;;;;;;;13.93;5.50;;;;;;;;;;5015533;28;93250;-75
2022/06/01 06:39:47;;;;;;;6.85;4.95;;;;;;;;;;4999843;28;94894;-76
2022/06/01 06:42:14;;;;;;;10.07;5.32;;;;;;;;;;4998101;28;93274;-75
2022/06/01 06:44:40;;;;;;;10.82;5.20;;;;;;;;;;4995394;28;92454;-75
2022/06/01 06:47:06;;;;;;;4.78;4.38;;;;;;;;;;5011196;28;93289;-76
2022/06/01 06:49:33;;;;;;;11.55;5.13;;;;;;;;;;4994677;28;93443;-76
2022/06/01 06:51:59;;;;;;;5.03;4.30;;;;;;;;;;4996691;28;92450;-77
2022/06/01 06:54:27;;;;;;;9.95;4.25;;;;;;;;;;5013671;28;94316;-76
2022/06/01 06:56:53;;;;;;;5.65;4.40;;;;;;;;;;4996834;28;92799;-76
2022/06/01 06:59:19;;;;;;;6.50;3.72;;;;;;;;;;5015085;28;92550;-77
2022/06/01 07:01:46;;;;;;;6.40;3.67;;;;;;;;;;5000359;28;95341;-75
2022/06/01 07:04:12;;;;;;;7.95;4.60;;;;;;;;;;4995681;28;95020;-75
2022/06/01 07:06:39;;;;;;;5.57;4.47;;;;;;;;;;4997091;28;95592;-75
2022/06/01 07:09:05;;;;;;;6.22;3.83;;;;;;;;;;5015213;28;92711;-75
2022/06/01 07:11:32;;;;;;;6.72;3.78;;;;;;;;;;5009348;28;92484;-75
2022/06/01 07:13:59;;;;;;;6.25;4.32;;;;;;;;;;5015061;28;93175;-75
2022/06/01 07:16:30;;;;;;;8.25;4.72;;;;;;;;;;4997650;28;93601;-75
2022/06/01 07:18:58;;;;;;;7.03;4.13;;;;;;;;;;4994601;28;92550;-75
2022/06/01 07:21:25;;;;;;;7.65;4.10;;;;;;;;;;5011558;28;93093;-76
2022/06/01 07:23:56;;;;;;;7.28;4.13;;;;;;;;;;5026692;28;96434;-76
2022/06/01 07:26:24;;;;;;;8.95;4.32;;;;;;;;;;4997319;28;92992;-75
2022/06/01 07:28:50;;;;;;;5.15;3.92;;;;;;;;;;5013301;28;96150;-75
2022/06/01 07:31:17;;;;;;;5.13;4.38;;;;;;;;;;5014820;28;92449;-75
2022/06/01 07:33:44;;;;;;;5.95;3.95;;;;;;;;;;5012496;28;93080;-75
2022/06/01 07:36:12;;;;;;;6.78;4.50;;;;;;;;;;4997485;28;93510;-75
2022/06/01 07:44:19;;;;;;;9.40;3.97;;;;;;;;;;5011697;28;93854;-76
2022/06/01 07:46:46;;;;;;;5.10;3.85;;;;;;;;;;4996279;28;91789;-76
2022/06/01 07:49:13;;;;;;;5.63;3.40;;;;;;;;;;4997454;28;95980;-75
2022/06/01 07:52:00;;;;;;;6.68;3.53;;;;;;;;;;4980369;28;92457;-75
2022/06/01 07:54:26;;;;;;;5.65;3.60;;;;;;;;;;4992178;28;94874;-76
2022/06/01 07:56:52;;;;;;;3.70;3.30;;;;;;;;;;4992278;28;94336;-76
2022/06/01 07:59:19;;;;;;;4.03;2.88;;;;;;;;;;4997006;28;92460;-75
2022/06/01 08:01:45;;;;;;;5.18;2.55;;;;;;;;;;4997201;28;93059;-76
2022/06/01 08:04:12;;;;;;;2.90;2.33;;;;;;;;;;5011180;28;93587;-76
2022/06/01 08:06:39;;;;;;;3.25;2.75;;;;;;;;;;5011450;28;92437;-76
2022/06/01 08:09:21;;;;;;;6.43;3.15;;;;;;;;;;5000223;28;94244;-76
2022/06/01 08:14:35;;;;;;;4.47;2.75;;;;;;;;;;5013619;28;92549;-76
2022/06/01 08:17:02;;;;;;;3.85;2.70;;;;;;;;;;4996095;28;94533;-76
2022/06/01 08:19:28;;;;;;;4.25;2.63;;;;;;;;;;4994723;28;94868;-76
2022/06/01 08:21:55;;;;;;;2.83;2.28;;;;;;;;;;5008584;28;97266;-76
2022/06/01 08:24:21;;;;;;;2.90;2.30;;;;;;;;;;5013610;28;93430;-76
2022/06/01 08:26:48;;;;;;;4.78;2.30;;;;;;;;;;4989242;28;92457;-76
2022/06/01 08:29:14;;;;;;;3.55;2.38;;;;;;;;;;5015042;28;93768;-76
2022/06/01 08:31:43;;;;;;;3.38;2.25;;;;;;;;;;4993014;28;93485;-76
2022/06/01 08:34:15;;;;;;;6.50;2.65;;;;;;;;;;4995166;28;94285;-76
2022/06/01 08:36:41;;;;;;;4.65;2.22;;;;;;;;;;4997655;28;95056;-76
2022/06/01 08:39:07;;;;;;;3.38;2.08;;;;;;;;;;5014863;28;92426;-76
2022/06/01 08:41:35;;;;;;;5.30;2.80;;;;;;;;;;4994949;28;93194;-76
2022/06/01 08:44:04;;;;;;;2.40;2.20;;;;;;;;;;5005815;28;96189;-75
2022/06/01 08:46:32;;;;;;;7.70;2.85;;;;;;;;;;5010338;28;92510;-75
2022/06/01 08:49:01;;;;;;;4.78;2.47;;;;;;;;;;5006361;28;93204;-75
2022/06/01 08:51:28;;;;;;;2.95;2.35;;;;;;;;;;5017245;28;94459;-75
2022/06/01 08:53:56;;;;;;;4.82;2.72;;;;;;;;;;4997314;28;95015;-75
2022/06/01 08:56:27;;;;;;;5.07;2.50;;;;;;;;;;5017976;28;93366;-75
2022/06/01 08:59:18;;;;;;;3.92;2.30;;;;;;;;;;5014083;28;92600;-76
2022/06/01 09:01:56;;;;;;;3.40;1.88;;;;;;;;;;4996628;28;93245;-75
2022/06/01 09:04:34;;;;;;;2.67;2.10;;;;;;;;;;5002334;28;93505;-75
2022/06/01 09:07:09;;;;;;;3.03;2.00;;;;;;;;;;4997385;28;92610;-76
2022/06/01 09:09:36;;;;;;;6.80;2.20;;;;;;;;;;5019621;27;94855;-76
2022/06/01 09:12:02;;;;;;;2.22;1.95;;;;;;;;;;4999789;28;93442;-76
2022/06/01 09:14:30;;;;;;;5.30;2.55;;;;;;;;;;5020817;28;92421;-76
2022/06/01 09:16:57;;;;;;;5.30;2.22;;;;;;;;;;4998530;28;93435;-76
2022/06/01 09:25:03;;;;;;;4.22;2.15;;;;;;;;;;5014551;28;93782;-76
2022/06/01 09:27:35;;;;;;;2.13;1.60;;;;;;;;;;5008585;28;91738;-76
2022/06/01 09:30:21;;;;;;;7.30;1.92;;;;;;;;;;4994534;28;92532;-75
2022/06/01 09:33:06;;;;;;;4.15;1.83;;;;;;;;;;5017792;28;92364;-76
2022/06/01 09:35:34;;;;;;;2.35;1.65;;;;;;;;;;4995279;28;95875;-75
2022/06/01 09:38:10;;;;;;;2.25;1.50;;;;;;;;;;4998559;28;95519;-76
2022/06/01 09:40:36;;;;;;;1.77;1.30;;;;;;;;;;5016276;28;92802;-75
2022/06/01 09:43:03;;;;;;;5.40;1.55;;;;;;;;;;4999863;28;93470;-76
2022/06/01 09:45:38;;;;;;;1.35;1.25;;;;;;;;;;4999547;28;92867;-75
2022/06/01 09:48:26;;;;;;;2.42;1.67;;;;;;;;;;4998250;28;92553;-77
2022/06/01 09:51:05;;;;;;;3.83;1.50;;;;;;;;;;5005374;28;94108;-76
2022/06/01 09:53:39;;;;;;;5.68;1.23;;;;;;;;;;4994647;28;93093;-76
2022/06/01 09:56:05;;;;;;;2.65;1.13;;;;;;;;;;5017080;28;92410;-76
2022/06/01 10:06:51;;;;;;;3.90;1.23;;;;;;;;;;5016476;28;95354;-75
2022/06/01 10:09:25;;;;;;;4.25;0.98;;;;;;;;;;5011888;28;92473;-76
2022/06/01 10:11:54;;;;;;;4.55;1.25;;;;;;;;;;4998698;28;94865;-77
2022/06/01 10:14:22;;;;;;;5.35;1.17;;;;;;;;;;5015696;28;93909;-75
2022/06/01 10:17:05;;;;;;;1.90;1.02;;;;;;;;;;4998508;28;93416;-76
2022/06/01 10:19:50;;;;;;;3.30;1.90;;;;;;;;;;4994968;28;93434;-76
2022/06/01 10:22:25;;;;;;;2.45;1.00;;;;;;;;;;5016884;28;93392;-76
2022/06/01 10:25:11;;;;;;;4.80;1.23;;;;;;;;;;5000651;28;92511;-76
2022/06/01 10:27:43;;;;;;;2.55;1.10;;;;;;;;;;5012417;28;97812;-76
2022/06/01 10:30:19;;;;;;;1.05;0.80;;;;;;;;;;4998953;28;92381;-76
2022/06/01 10:33:04;;;;;;;2.97;0.98;;;;;;;;;;4996011;28;93301;-76
2022/06/01 10:35:43;;;;;;;0.93;0.82;;;;;;;;;;5010526;28;96106;-76
2022/06/01 10:38:13;;;;;;;4.47;1.25;;;;;;;;;;4987165;28;92624;-76
2022/06/01 10:40:48;;;;;;;1.58;0.77;;;;;;;;;;4999144;28;93145;-76
2022/06/01 10:43:33;;;;;;;1.35;0.75;;;;;;;;;;4997851;28;93493;-76
2022/06/01 10:46:05;;;;;;;1.35;0.65;;;;;;;;;;4998602;28;91846;-76
2022/06/01 10:48:40;;;;;;;0.88;0.60;;;;;;;;;;5001159;28;92584;-76
2022/06/01 10:51:11;;;;;;;0.95;0.80;;;;;;;;;;5014381;28;92461;-76
2022/06/01 10:54:03;;;;;;;3.50;0.90;;;;;;;;;;4999153;28;94759;-76
2022/06/01 10:56:30;;;;;;;5.07;1.42;;;;;;;;;;5015605;28;93397;-76
2022/06/01 10:59:00;;;;;;;1.30;0.70;;;;;;;;;;5016118;28;92569;-76
2022/06/01 11:01:45;;;;;;;0.80;0.80;;;;;;;;;;4996670;28;93110;-75
2022/06/01 11:04:26;;;;;;;0.95;0.80;;;;;;;;;;5016456;28;94995;-76
2022/06/01 11:07:00;;;;;;;0.77;0.70;;;;;;;;;;4995667;28;92503;-76
2022/06/01 11:09:36;;;;;;;2.35;1.00;;;;;;;;;;5018791;28;93110;-75
2022/06/01 11:12:21;;;;;;;2.95;1.02;;;;;;;;;;5015744;28;91763;-76
2022/06/01 11:14:50;;;;;;;3.80;1.05;;;;;;;;;;5015052;28;92573;-76
2022/06/01 11:17:17;;;;;;;1.10;1.00;;;;;;;;;;5000147;28;94571;-75
2022/06/01 11:19:56;;;;;;;1.40;1.08;;;;;;;;;;5012255;28;95050;-76
2022/06/01 11:22:32;;;;;;;2.30;1.00;;;;;;;;;;4997617;28;95465;-76
2022/06/01 11:25:03;;;;;;;1.33;0.70;;;;;;;;;;5015413;28;93353;-76
2022/06/01 11:27:45;;;;;;;2.13;0.80;;;;;;;;;;5015992;28;92628;-76
2022/06/01 11:30:19;;;;;;;1.48;0.70;;;;;;;;;;4997758;28;94606;-76
2022/06/01 11:32:56;;;;;;;0.73;0.70;;;;;;;;;;5000892;28;92581;-76
2022/06/01 11:35:28;;;;;;;2.03;0.80;;;;;;;;;;4994404;28;93115;-77
2022/06/01 11:37:59;;;;;;;3.42;0.80;;;;;;;;;;4998027;28;92794;-75
2022/06/01 11:40:36;;;;;;;0.85;0.50;;;;;;;;;;5013733;28;92497;-75
2022/06/01 11:43:08;;;;;;;5.88;0.82;;;;;;;;;;5013243;28;93580;-75
2022/06/01 11:45:38;;;;;;;6.78;0.90;;;;;;;;;;5000858;28;96016;-76
2022/06/01 11:48:08;;;;;;;0.77;0.70;;;;;;;;;;5014888;28;92450;-75
2022/06/01 11:50:34;;;;;;;2.03;0.80;;;;;;;;;;4996165;28;93328;-75
2022/06/01 11:53:07;;;;;;;0.73;0.40;;;;;;;;;;5014347;28;93281;-76
2022/06/01 11:55:33;;;;;;;1.75;0.47;;;;;;;;;;4999738;28;92484;-76
2022/06/01 11:58:13;;;;;;;0.95;0.68;;;;;;;;;;5011812;28;93719;-75
2022/06/01 12:00:40;;;;;;;3.92;1.00;;;;;;;;;;5013416;28;92600;-76
2022/06/01 12:03:15;;;;;;;1.05;0.93;;;;;;;;;;5015762;28;93140;-75
2022/06/01 12:05:57;;;;;;;0.70;0.60;;;;;;;;;;4998276;28;93707;-75
2022/06/01 12:08:29;;;;;;;0.80;0.77;;;;;;;;;;4999903;28;92503;-75
2022/06/01 12:10:58;;;;;;;2.05;0.95;;;;;;;;;;4994669;28;95011;-75
2022/06/01 12:13:26;;;;;;;2.00;0.90;;;;;;;;;;5007587;28;93500;-76
2022/06/01 12:16:04;;;;;;;1.35;1.10;;;;;;;;;;5014100;28;92514;-75
2022/06/01 12:18:35;;;;;;;2.17;1.08;;;;;;;;;;4999853;28;93640;-75
2022/06/01 12:21:16;;;;;;;6.18;1.30;;;;;;;;;;4992259;28;92477;-75
2022/06/01 12:29:32;;;;;;;3.67;1.30;;;;;;;;;;4999890;28;91684;-75
2022/06/01 12:31:58;;;;;;;2.45;0.93;;;;;;;;;;5002214;28;92551;-75
2022/06/01 12:34:27;;;;;;;1.95;1.27;;;;;;;;;;4995233;28;93457;-75
2022/06/01 12:37:12;;;;;;;1.65;1.05;;;;;;;;;;5012698;28;94805;-75
2022/06/01 12:39:38;;;;;;;3.05;1.20;;;;;;;;;;5010146;28;95570;-75
2022/06/01 12:42:11;;;;;;;2.38;1.27;;;;;;;;;;5009612;28;93479;-76
2022/06/01 12:44:39;;;;;;;3.60;1.20;;;;;;;;;;5011562;28;93308;-74
2022/06/01 12:47:05;;;;;;;1.30;1.20;;;;;;;;;;5010588;28;92521;-74
2022/06/01 12:49:37;;;;;;;1.10;1.00;;;;;;;;;;4995358;28;93383;-75
2022/06/01 12:52:05;;;;;;;1.35;1.17;;;;;;;;;;5013117;28;93176;-76
2022/06/01 12:54:43;;;;;;;3.50;1.05;;;;;;;;;;5013685;28;93196;-78
2022/06/01 12:57:14;;;;;;;6.13;0.95;;;;;;;;;;4986510;28;92440;-76
2022/06/01 12:59:41;;;;;;;3.00;0.90;;;;;;;;;;4996557;28;93482;-76
2022/06/01 13:02:10;;;;;;;1.45;1.25;;;;;;;;;;4994530;28;96767;-76
2022/06/01 13:04:37;;;;;;;1.77;1.40;;;;;;;;;;4998776;28;92482;-76
2022/06/01 13:07:05;;;;;;;3.72;1.50;;;;;;;;;;5012235;28;93915;-76
2022/06/01 13:09:33;;;;;;;2.08;1.60;;;;;;;;;;5014602;28;92363;-76
2022/06/01 13:12:04;;;;;;;1.50;1.25;;;;;;;;;;5008725;28;94097;-77
2022/06/01 13:14:31;;;;;;;2.22;1.30;;;;;;;;;;4992590;28;94416;-77
2022/06/01 13:16:59;;;;;;;1.88;1.40;;;;;;;;;;4995659;28;92456;-76
2022/06/01 13:19:28;;;;;;;2.83;1.60;;;;;;;;;;4996417;28;93420;-76
2022/06/01 13:21:54;;;;;;;2.90;1.60;;;;;;;;;;5011212;28;93426;-76
2022/06/01 13:24:21;;;;;;;2.83;1.42;;;;;;;;;;5005879;28;92590;-76
2022/06/01 13:26:51;;;;;;;1.52;1.40;;;;;;;;;;4993796;28;96021;-76
2022/06/01 13:29:22;;;;;;;5.65;1.48;;;;;;;;;;5014541;28;92407;-77
2022/06/01 13:31:50;;;;;;;1.38;1.27;;;;;;;;;;4989444;28;94423;-77
2022/06/01 13:34:19;;;;;;;3.95;1.42;;;;;;;;;;4995521;28;96827;-78
2022/06/01 13:36:46;;;;;;;39.72;2.92;;;;;;;;;;4994457;28;92454;-77
2022/06/01 13:39:13;;;;;;;2.63;1.40;;;;;;;;;;4989508;28;96534;-77
2022/06/01 13:41:51;;;;;;;2.72;1.45;;;;;;;;;;4982560;28;95834;-75
2022/06/01 13:44:36;;;;;;;13.18;2.10;;;;;;;;;;4992852;28;92107;-75
2022/06/01 13:47:03;;;;;;;5.70;1.50;;;;;;;;;;5016398;28;92702;-74
2022/06/01 13:49:29;;;;;;;8.27;1.65;;;;;;;;;;4997843;28;92470;-75
2022/06/01 13:52:00;;;;;;;6.90;1.15;;;;;;;;;;4996888;28;95033;-77
2022/06/01 13:54:30;;;;;;;10.80;1.60;;;;;;;;;;4996784;28;93252;-84
2022/06/01 13:57:11;;;;;;;5.78;1.25;;;;;;;;;;5016616;28;92479;-75
2022/06/01 13:59:49;;;;;;;1.10;1.10;;;;;;;;;;5013622;28;92938;-75
2022/06/01 14:02:18;;;;;;;1.30;1.20;;;;;;;;;;5015498;28;93432;-75
2022/06/01 14:04:46;;;;;;;7.88;1.58;;;;;;;;;;5016851;28;92396;-75
2022/06/01 14:07:14;;;;;;;2.38;1.20;;;;;;;;;;4993111;28;93160;-75
2022/06/01 14:09:45;;;;;;;1.90;1.15;;;;;;;;;;5013542;28;93041;-75
2022/06/01 14:12:12;;;;;;;3.00;1.50;;;;;;;;;;5016881;28;92484;-75
2022/06/01 14:14:40;;;;;;;1.48;1.38;;;;;;;;;;5016046;28;93406;-76
2022/06/01 14:17:07;;;;;;;11.07;1.30;;;;;;;;;;5011130;28;96225;-74
2022/06/01 14:19:34;;;;;;;1.00;1.00;;;;;;;;;;5015462;28;96140;-75
2022/06/01 14:22:00;;;;;;;1.85;1.10;;;;;;;;;;4992643;28;93652;-75
2022/06/01 14:28:28;;;;;;;3.63;1.80;;;;;;;;;;4996310;28;92480;-74
2022/06/01 14:29:58;;;;;;;2.40;1.92;;;;;;;;;;5014792;28;93438;-74
2022/06/01 14:32:24;;;;;;;2.30;1.60;;;;;;;;;;4997371;28;92361;-75
2022/06/01 14:34:51;;;;;;;9.02;1.70;;;;;;;;;;5015122;28;92616;-75
2022/06/01 14:37:17;;;;;;;1.40;1.30;;;;;;;;;;4998851;28;92456;-75
2022/06/01 14:39:43;;;;;;;3.47;1.23;;;;;;;;;;5016021;28;92932;-75
2022/06/01 14:42:10;;;;;;;4.30;1.10;;;;;;;;;;4995995;28;95644;-75
2022/06/01 14:44:36;;;;;;;1.88;1.45;;;;;;;;;;5012474;28;92481;-74
2022/06/01 14:47:03;;;;;;;1.95;1.35;;;;;;;;;;5015037;28;95559;-76
2022/06/01 14:49:29;;;;;;;3.15;1.48;;;;;;;;;;5015830;28;93751;-75
2022/06/01 14:52:00;;;;;;;5.03;1.33;;;;;;;;;;5015271;28;92397;-74
2022/06/01 14:54:28;;;;;;;1.67;1.20;;;;;;;;;;5014398;28;94049;-75
2022/06/01 14:56:55;;;;;;;1.85;1.60;;;;;;;;;;5014245;28;92477;-75
2022/06/01 14:59:22;;;;;;;2.95;1.70;;;;;;;;;;5016059;28;93108;-74
2022/06/01 15:01:51;;;;;;;1.95;1.30;;;;;;;;;;5016042;28;94461;-75
2022/06/01 15:04:20;;;;;;;1.63;1.30;;;;;;;;;;5009304;28;92609;-75
2022/06/01 15:06:46;;;;;;;4.15;1.30;;;;;;;;;;5014970;28;94984;-75
2022/06/01 15:09:13;;;;;;;3.65;1.70;;;;;;;;;;5009006;28;92381;-76
2022/06/01 15:11:40;;;;;;;1.80;1.55;;;;;;;;;;5005783;28;93673;-76
2022/06/01 15:14:08;;;;;;;2.33;1.58;;;;;;;;;;5013426;28;93193;-77
2022/06/01 15:16:34;;;;;;;3.95;2.55;;;;;;;;;;5003386;28;92465;-75
2022/06/01 15:19:01;;;;;;;4.75;2.20;;;;;;;;;;4985357;28;93098;-75
2022/06/01 15:21:27;;;;;;;3.17;1.70;;;;;;;;;;4995760;28;93695;-75
2022/06/01 15:23:55;;;;;;;9.75;2.15;;;;;;;;;;5011931;28;91698;-75
2022/06/01 15:26:23;;;;;;;3.63;2.10;;;;;;;;;;4996822;28;92503;-75
2022/06/01 15:28:49;;;;;;;3.28;1.70;;;;;;;;;;5014971;28;93572;-75
2022/06/01 15:39:36;;;;;;;2.13;1.00;;;;;;;;;;5012879;28;93155;-75
2022/06/01 15:42:10;;;;;;;1.67;1.05;;;;;;;;;;5013233;28;93417;-75